createdAt,value
2022-12-01T00:01:46.336Z,3.52
2022-12-01T00:04:13.103Z,3.50
2022-12-01T00:06:39.908Z,3.49
2022-12-01T00:09:25.190Z,3.50
2022-12-01T00:11:51.985Z,3.51
2022-12-01T00:14:18.754Z,3.55
2022-12-01T00:16:45.686Z,3.47
2022-12-01T00:19:12.528Z,3.48
2022-12-01T00:21:39.383Z,3.51
2022-12-01T00:24:07.968Z,3.48
2022-12-01T00:26:34.688Z,3.52
2022-12-01T00:29:01.428Z,3.50
2022-12-01T00:31:28.321Z,3.41
2022-12-01T00:33:55.260Z,3.39
2022-12-01T00:36:22.014Z,3.38
2022-12-01T00:38:51.526Z,3.37
2022-12-01T00:41:18.606Z,3.34
2022-12-01T00:43:45.569Z,3.34
2022-12-01T00:46:12.957Z,3.35
2022-12-01T00:48:39.696Z,3.36
2022-12-01T00:51:06.414Z,3.32
2022-12-01T00:53:33.043Z,3.30
2022-12-01T00:55:59.690Z,3.30
2022-12-01T00:58:26.464Z,3.26
2022-12-01T01:01:02.576Z,3.29
2022-12-01T01:03:29.721Z,3.22
2022-12-01T01:05:56.619Z,3.18
2022-12-01T01:08:23.435Z,3.18
2022-12-01T01:10:50.159Z,3.18
2022-12-01T01:13:16.995Z,3.18
2022-12-01T01:15:43.687Z,3.22
2022-12-01T01:18:10.934Z,3.18
2022-12-01T01:20:37.686Z,3.18
2022-12-01T01:23:04.413Z,3.22
2022-12-01T01:25:32.030Z,3.23
2022-12-01T01:27:58.836Z,3.21
2022-12-01T01:30:25.562Z,3.17
2022-12-01T01:32:52.583Z,3.16
2022-12-01T01:35:19.379Z,3.15
2022-12-01T01:37:46.147Z,3.17
2022-12-01T01:40:13.119Z,3.21
2022-12-01T01:42:39.932Z,3.21
2022-12-01T01:45:11.746Z,3.21
2022-12-01T01:47:39.368Z,3.20
2022-12-01T01:50:12.511Z,3.21
2022-12-01T01:52:40.977Z,3.18
2022-12-01T01:55:08.210Z,3.22
2022-12-01T01:57:35.254Z,3.19
2022-12-01T02:00:07.792Z,3.18
2022-12-01T02:02:40.961Z,3.20
2022-12-01T02:05:11.379Z,3.19
2022-12-01T02:07:38.504Z,3.16
2022-12-01T02:10:05.769Z,3.13
2022-12-01T02:12:51.238Z,3.14
2022-12-01T02:43:47.564Z,3.16
2022-12-01T02:46:16.303Z,3.17
2022-12-01T02:48:44.117Z,3.14
2022-12-01T02:51:12.338Z,3.17
2022-12-01T02:53:39.247Z,3.17
2022-12-01T02:56:07.156Z,3.16
2022-12-01T03:01:29.783Z,3.10
2022-12-01T03:03:59.757Z,3.14
2022-12-01T03:06:34.759Z,3.13
2022-12-01T03:09:09.125Z,3.15
2022-12-01T03:11:38.163Z,3.15
2022-12-01T03:14:15.835Z,3.17
2022-12-01T03:16:52.563Z,3.10
2022-12-01T03:19:27.100Z,3.09
2022-12-01T03:21:59.546Z,3.08
2022-12-01T03:24:26.577Z,3.09
2022-12-01T03:26:57.188Z,3.01
2022-12-01T03:29:25.844Z,3.00
2022-12-01T03:31:54.215Z,3.07
2022-12-01T03:34:31.110Z,3.02
2022-12-01T03:36:59.716Z,3.03
2022-12-01T03:39:27.332Z,3.05
2022-12-01T03:41:55.247Z,3.00
2022-12-01T03:44:23.114Z,2.99
2022-12-01T03:47:09.716Z,3.00
2022-12-01T03:49:38.558Z,2.98
2022-12-01T03:55:25.034Z,2.98
2022-12-01T03:57:55.859Z,2.97
2022-12-01T04:00:24.228Z,2.96
2022-12-01T04:02:58.663Z,2.96
2022-12-01T04:05:31.757Z,2.98
2022-12-01T04:10:45.533Z,2.97
2022-12-01T04:28:49.166Z,2.95
2022-12-01T04:31:18.383Z,2.94
2022-12-01T04:47:01.403Z,2.96
2022-12-01T04:49:28.328Z,2.90
2022-12-01T04:51:56.848Z,2.90
2022-12-01T04:57:10.884Z,2.87
2022-12-01T04:59:37.840Z,2.86
2022-12-01T05:02:04.862Z,2.85
2022-12-01T05:04:37.269Z,2.86
2022-12-01T05:07:06.564Z,2.85
2022-12-01T05:09:35.373Z,2.87
2022-12-01T05:12:02.439Z,2.96
2022-12-01T05:14:29.654Z,2.90
2022-12-01T05:17:00.119Z,2.84
2022-12-01T05:19:46.456Z,2.81
2022-12-01T05:22:18.437Z,2.82
2022-12-01T05:27:49.950Z,2.76
2022-12-01T05:30:24.354Z,2.82
2022-12-01T05:32:55.526Z,2.86
2022-12-01T05:38:08.244Z,2.76
2022-12-01T05:40:38.477Z,2.79
2022-12-01T05:43:05.420Z,2.76
2022-12-01T05:45:32.513Z,2.68
2022-12-01T05:48:01.761Z,2.72
2022-12-01T05:50:31.437Z,2.67
2022-12-01T05:52:58.454Z,2.66
2022-12-01T05:55:25.557Z,2.66
2022-12-01T05:57:55.484Z,2.67
2022-12-01T06:00:26.596Z,2.69
2022-12-01T06:02:53.968Z,2.67
2022-12-01T06:05:20.992Z,2.61
2022-12-01T06:07:47.736Z,2.61
2022-12-01T06:10:15.095Z,2.59
2022-12-01T06:12:41.852Z,2.58
2022-12-01T06:15:08.849Z,2.58
2022-12-01T06:17:39.909Z,2.59
2022-12-01T06:20:08.156Z,2.58
2022-12-01T06:22:35.179Z,2.54
2022-12-01T06:25:02.009Z,2.57
2022-12-01T06:27:28.657Z,2.58
2022-12-01T06:29:57.377Z,2.58
2022-12-01T06:32:24.302Z,2.56
2022-12-01T06:34:50.990Z,2.62
2022-12-01T06:37:18.033Z,2.56
2022-12-01T06:39:44.799Z,2.55
2022-12-01T06:42:12.373Z,2.51
2022-12-01T06:52:53.986Z,2.51
2022-12-01T06:55:24.683Z,2.46
2022-12-01T06:57:53.849Z,2.42
2022-12-01T07:00:22.327Z,2.44
2022-12-01T07:02:49.469Z,2.40
2022-12-01T07:05:20.258Z,2.46
2022-12-01T07:07:52.720Z,2.45
2022-12-01T07:10:25.095Z,2.41
2022-12-01T07:12:57.299Z,2.39
2022-12-01T07:15:25.143Z,2.38
2022-12-01T07:21:07.442Z,2.37
2022-12-01T07:26:21.348Z,2.39
2022-12-01T07:32:40.658Z,2.37
2022-12-01T07:35:10.038Z,2.33
2022-12-01T07:43:48.289Z,2.38
2022-12-01T07:46:23.111Z,2.37
2022-12-01T07:51:32.002Z,2.41
2022-12-01T07:54:01.940Z,2.44
2022-12-01T07:56:36.170Z,2.49
2022-12-01T07:59:03.016Z,2.48
2022-12-01T08:01:32.159Z,2.44
2022-12-01T08:04:02.481Z,2.47
2022-12-01T08:06:35.855Z,2.48
2022-12-01T08:11:47.156Z,2.50
2022-12-01T08:14:14.132Z,2.49
2022-12-01T08:19:35.365Z,2.52
2022-12-01T08:30:01.948Z,2.48
2022-12-01T08:32:29.849Z,2.53
2022-12-01T08:37:44.210Z,2.55
2022-12-01T08:40:12.152Z,2.45
2022-12-01T08:42:39.132Z,2.46
2022-12-01T08:47:50.369Z,2.47
2022-12-01T08:50:17.784Z,2.51
2022-12-01T08:55:29.958Z,2.49
2022-12-01T08:57:56.744Z,2.47
2022-12-01T09:00:23.479Z,2.35
2022-12-01T09:02:50.341Z,2.26
2022-12-01T09:05:17.053Z,2.20
2022-12-01T09:07:45.853Z,2.10
2022-12-01T09:12:53.974Z,2.13
2022-12-01T09:15:21.429Z,2.15
2022-12-01T09:17:48.229Z,2.18
2022-12-01T09:23:01.487Z,2.29
2022-12-01T09:25:28.639Z,2.23
2022-12-01T09:27:55.464Z,2.34
2022-12-01T09:30:22.368Z,2.27
2022-12-01T09:38:16.560Z,2.26
2022-12-01T09:40:43.507Z,2.31
2022-12-01T09:43:16.705Z,2.34
2022-12-01T09:45:47.704Z,2.41
2022-12-01T09:48:20.683Z,2.44
2022-12-01T09:50:47.470Z,2.45
2022-12-01T09:53:16.060Z,2.37
2022-12-01T09:55:49.836Z,2.36
2022-12-01T09:58:21.168Z,2.27
2022-12-01T10:00:49.412Z,2.39
2022-12-01T10:03:25.409Z,2.37
2022-12-01T10:06:26.138Z,2.42
2022-12-01T10:08:44.788Z,2.46
2022-12-01T10:11:30.390Z,2.50
2022-12-01T10:13:59.373Z,2.56
2022-12-01T10:16:32.387Z,2.57
2022-12-01T10:19:02.217Z,2.59
2022-12-01T10:21:35.100Z,2.54
2022-12-01T10:24:23.855Z,2.48
2022-12-01T10:26:52.646Z,2.51
2022-12-01T10:29:31.221Z,2.52
2022-12-01T10:32:02.540Z,2.50
2022-12-01T10:34:30.265Z,2.55
2022-12-01T10:36:57.238Z,2.64
2022-12-01T10:39:27.066Z,2.67
2022-12-01T10:41:53.783Z,2.71
2022-12-01T10:44:20.790Z,2.64
2022-12-01T10:46:47.653Z,2.70
2022-12-01T10:49:15.360Z,2.82
2022-12-01T10:51:53.120Z,2.93
2022-12-01T10:54:20.087Z,3.01
2022-12-01T10:56:48.067Z,3.04
2022-12-01T10:59:25.996Z,3.08
2022-12-01T11:01:53.091Z,3.10
2022-12-01T11:04:22.248Z,2.99
2022-12-01T11:06:50.064Z,2.94
2022-12-01T11:09:28.464Z,2.95
2022-12-01T11:11:59.363Z,2.91
2022-12-01T11:14:45.630Z,2.89
2022-12-01T11:17:16.743Z,2.84
2022-12-01T11:19:43.848Z,2.90
2022-12-01T11:22:20.083Z,2.87
2022-12-01T11:24:52.937Z,2.92
2022-12-01T11:27:26.634Z,2.90
2022-12-01T11:29:55.500Z,2.85
2022-12-01T11:32:23.740Z,2.82
2022-12-01T11:35:01.772Z,2.83
2022-12-01T11:37:30.547Z,2.82
2022-12-01T11:39:58.462Z,2.82
2022-12-01T11:42:30.927Z,2.85
2022-12-01T11:45:03.862Z,2.86
2022-12-01T11:47:30.767Z,2.94
2022-12-01T11:49:58.910Z,2.91
2022-12-01T11:52:36.705Z,2.93
2022-12-01T11:57:48.899Z,2.98
2022-12-01T12:00:16.333Z,2.94
2022-12-01T12:02:48.461Z,2.88
2022-12-01T12:05:18.435Z,2.89
2022-12-01T12:08:08.142Z,2.97
2022-12-01T12:10:42.257Z,2.91
2022-12-01T12:16:09.395Z,3.04
2022-12-01T12:18:55.984Z,3.12
2022-12-01T12:21:31.243Z,3.21
2022-12-01T12:24:08.554Z,3.26
2022-12-01T12:26:35.566Z,3.29
2022-12-01T12:29:25.677Z,3.43
2022-12-01T12:32:05.190Z,3.29
2022-12-01T12:34:34.894Z,3.16
2022-12-01T12:37:16.563Z,3.10
2022-12-01T12:39:59.933Z,3.08
2022-12-01T12:42:35.896Z,3.09
2022-12-01T12:45:06.506Z,3.10
2022-12-01T12:47:40.252Z,3.03
2022-12-01T12:50:28.252Z,3.00
2022-12-01T12:55:40.498Z,2.99
2022-12-01T12:58:15.058Z,2.97
2022-12-01T13:00:44.386Z,2.85
2022-12-01T13:03:25.137Z,2.73
2022-12-01T13:05:57.983Z,2.66
2022-12-01T13:08:27.329Z,2.61
2022-12-01T13:10:57.511Z,2.59
2022-12-01T13:13:40.873Z,2.59
2022-12-01T13:16:26.770Z,2.65
2022-12-01T13:18:59.685Z,2.73
2022-12-01T13:21:26.620Z,2.74
2022-12-01T13:23:53.597Z,2.72
2022-12-01T13:26:20.951Z,2.83
2022-12-01T13:28:49.636Z,2.89
2022-12-01T13:31:16.732Z,2.88
2022-12-01T13:34:02.446Z,2.82
2022-12-01T13:36:46.133Z,2.81
2022-12-01T13:39:36.815Z,2.79
2022-12-01T13:42:08.083Z,2.82
2022-12-01T13:44:41.893Z,2.78
2022-12-01T13:47:11.814Z,2.78
2022-12-01T13:49:42.730Z,2.74
2022-12-01T13:52:21.726Z,2.60
2022-12-01T13:55:08.015Z,2.59
2022-12-01T13:57:36.591Z,2.55
2022-12-01T14:00:09.478Z,2.55
2022-12-01T14:02:36.824Z,2.54
2022-12-01T14:05:33.171Z,2.52
2022-12-01T14:08:00.049Z,2.47
2022-12-01T14:10:32.929Z,2.43
2022-12-01T14:13:00.636Z,2.45
2022-12-01T14:15:30.547Z,2.41
2022-12-01T14:18:01.886Z,2.39
2022-12-01T14:20:28.819Z,2.36
2022-12-01T14:23:07.869Z,2.38
2022-12-01T14:25:34.785Z,2.35
2022-12-01T14:28:04.555Z,2.32
2022-12-01T14:30:41.072Z,2.30
2022-12-01T14:33:27.201Z,2.34
2022-12-01T14:35:58.401Z,2.33
2022-12-01T14:38:25.427Z,2.34
2022-12-01T14:40:52.149Z,2.35
2022-12-01T14:43:37.465Z,2.33
2022-12-01T14:48:51.253Z,2.24
2022-12-01T14:51:30.363Z,2.24
2022-12-01T14:53:59.882Z,2.21
2022-12-01T14:56:30.284Z,2.17
2022-12-01T14:59:00.571Z,2.14
2022-12-01T15:01:35.158Z,2.12
2022-12-01T15:04:04.638Z,2.13
2022-12-01T15:06:33.129Z,2.08
2022-12-01T15:09:34.044Z,2.01
2022-12-01T15:12:05.805Z,2.02
2022-12-01T15:14:41.350Z,2.00
2022-12-01T15:17:09.804Z,1.98
2022-12-01T15:19:43.668Z,1.98
2022-12-01T15:22:10.416Z,1.90
2022-12-01T15:24:37.308Z,1.87
2022-12-01T15:27:08.181Z,1.77
2022-12-01T15:29:44.147Z,1.70
2022-12-01T15:32:14.554Z,1.67
2022-12-01T15:34:44.626Z,1.74
2022-12-01T15:37:16.847Z,1.73
2022-12-01T15:39:53.649Z,1.77
2022-12-01T15:42:30.459Z,1.72
2022-12-01T15:45:17.464Z,1.66
2022-12-01T15:47:44.326Z,1.61
2022-12-01T15:50:32.284Z,1.65
2022-12-01T15:53:02.445Z,1.62
2022-12-01T15:55:32.660Z,1.64
2022-12-01T15:58:00.135Z,1.70
2022-12-01T16:00:27.244Z,1.66
2022-12-01T16:02:56.174Z,1.61
2022-12-01T16:05:30.541Z,1.54
2022-12-01T16:08:13.927Z,1.56
2022-12-01T16:10:44.925Z,1.50
2022-12-01T16:13:44.373Z,1.51
2022-12-01T16:16:30.027Z,1.48
2022-12-01T16:18:59.941Z,1.48
2022-12-01T16:21:30.074Z,1.52
2022-12-01T16:24:05.964Z,1.50
2022-12-01T16:26:37.054Z,1.51
2022-12-01T16:29:05.062Z,1.52
2022-12-01T16:31:52.656Z,1.56
2022-12-01T16:34:45.267Z,1.56
2022-12-01T16:37:13.248Z,1.55
2022-12-01T16:39:44.064Z,1.54
2022-12-01T16:42:27.894Z,1.53
2022-12-01T16:45:04.102Z,1.51
2022-12-01T16:47:36.567Z,1.50
2022-12-01T16:50:04.495Z,1.56
2022-12-01T16:52:44.270Z,1.56
2022-12-01T16:55:25.571Z,1.57
2022-12-01T16:57:56.918Z,1.50
2022-12-01T17:03:17.065Z,1.41
2022-12-01T17:05:46.443Z,1.43
2022-12-01T17:08:14.119Z,1.46
2022-12-01T17:10:43.689Z,1.47
2022-12-01T17:15:57.058Z,1.46
2022-12-01T17:18:25.320Z,1.41
2022-12-01T17:21:03.024Z,1.41
2022-12-01T17:23:33.207Z,1.40
2022-12-01T17:26:01.169Z,1.41
2022-12-01T17:28:31.677Z,1.41
2022-12-01T17:33:55.495Z,1.48
2022-12-01T17:36:23.681Z,1.40
2022-12-01T17:38:52.521Z,1.35
2022-12-01T17:41:26.467Z,1.32
2022-12-01T17:46:37.605Z,1.34
2022-12-01T17:49:17.189Z,1.32
2022-12-01T17:51:47.762Z,1.32
2022-12-01T17:54:17.663Z,1.27
2022-12-01T17:56:47.319Z,1.20
2022-12-01T17:59:17.330Z,1.18
2022-12-01T18:01:54.462Z,1.22
2022-12-01T18:04:23.005Z,1.23
2022-12-01T18:06:54.343Z,1.26
2022-12-01T18:09:22.969Z,1.29
2022-12-01T18:11:54.214Z,1.25
2022-12-01T18:14:28.957Z,1.26
2022-12-01T18:16:58.925Z,1.28
2022-12-01T18:19:35.609Z,1.25
2022-12-01T18:22:07.162Z,1.26
2022-12-01T18:24:34.147Z,1.29
2022-12-01T18:27:01.087Z,1.21
2022-12-01T18:29:29.000Z,1.32
2022-12-01T18:31:56.624Z,1.34
2022-12-01T18:34:24.509Z,1.24
2022-12-01T18:36:51.978Z,1.19
2022-12-01T18:39:18.947Z,1.19
2022-12-01T18:41:46.184Z,1.15
2022-12-01T18:44:13.221Z,1.18
2022-12-01T18:46:40.238Z,1.14
2022-12-01T18:49:09.167Z,1.12
2022-12-01T18:51:37.267Z,1.11
2022-12-01T18:54:04.688Z,1.08
2022-12-01T18:56:31.703Z,1.06
2022-12-01T18:59:00.015Z,1.02
2022-12-01T19:01:28.773Z,0.93
2022-12-01T19:03:56.639Z,0.91
2022-12-01T19:06:23.870Z,0.87
2022-12-01T19:08:51.645Z,0.89
2022-12-01T19:11:19.234Z,0.85
2022-12-01T19:13:46.540Z,0.86
2022-12-01T19:16:14.787Z,0.85
2022-12-01T19:18:42.311Z,0.76
2022-12-01T19:21:10.501Z,0.75
2022-12-01T19:23:37.504Z,0.69
2022-12-01T19:26:07.743Z,0.68
2022-12-01T19:28:35.949Z,0.65
2022-12-01T19:33:51.439Z,0.68
2022-12-01T19:36:19.358Z,0.66
2022-12-01T19:38:48.726Z,0.70
2022-12-01T19:41:15.681Z,0.69
2022-12-01T19:43:45.503Z,0.61
2022-12-01T19:46:13.990Z,0.67
2022-12-01T19:48:40.998Z,0.62
2022-12-01T19:51:08.397Z,0.54
2022-12-01T19:53:35.658Z,0.50
2022-12-01T19:56:04.313Z,0.57
2022-12-01T19:58:34.466Z,0.54
2022-12-01T20:01:04.932Z,0.53
2022-12-01T20:03:32.398Z,0.52
2022-12-01T20:06:03.022Z,0.51
2022-12-01T20:08:35.057Z,0.55
2022-12-01T20:11:04.751Z,0.57
2022-12-01T20:13:35.846Z,0.48
2022-12-01T20:16:03.834Z,0.44
2022-12-01T20:18:31.580Z,0.45
2022-12-01T20:21:09.233Z,0.39
2022-12-01T20:23:36.921Z,0.44
2022-12-01T20:30:00.285Z,0.41
2022-12-01T20:32:27.246Z,0.36
2022-12-01T20:34:54.112Z,0.36
2022-12-01T20:37:20.864Z,0.27
2022-12-01T20:39:49.209Z,0.28
2022-12-01T20:42:18.946Z,0.26
2022-12-01T20:47:36.874Z,0.21
2022-12-01T20:50:06.995Z,0.25
2022-12-01T20:52:34.780Z,0.27
2022-12-01T20:55:01.690Z,0.24
2022-12-01T20:57:28.655Z,0.25
2022-12-01T20:59:56.710Z,0.28
2022-12-01T21:02:24.383Z,0.25
2022-12-01T21:04:55.093Z,0.30
2022-12-01T21:07:25.318Z,0.25
2022-12-01T21:09:52.818Z,0.17
2022-12-01T21:12:38.261Z,0.15
2022-12-01T21:15:11.222Z,0.15
2022-12-01T21:17:39.765Z,0.15
2022-12-01T21:20:07.538Z,0.17
2022-12-01T21:22:35.443Z,0.18
2022-12-01T21:25:03.784Z,0.25
2022-12-01T21:30:25.146Z,0.23
2022-12-01T21:32:51.966Z,0.24
2022-12-01T21:35:33.204Z,0.21
2022-12-01T21:38:08.085Z,0.25
2022-12-01T21:40:53.735Z,0.21
2022-12-01T21:43:25.557Z,0.24
2022-12-01T21:45:56.332Z,0.24
2022-12-01T21:48:27.319Z,0.24
2022-12-01T21:51:01.564Z,0.22
2022-12-01T21:53:33.544Z,0.27
2022-12-01T21:56:00.566Z,0.27
2022-12-01T21:58:31.192Z,0.24
2022-12-01T22:00:58.804Z,0.26
2022-12-01T22:03:28.511Z,0.27
2022-12-01T22:06:29.479Z,0.27
2022-12-01T22:11:27.787Z,0.32
2022-12-01T22:14:13.348Z,0.32
2022-12-01T22:16:43.145Z,0.33
2022-12-01T22:22:16.084Z,0.34
2022-12-01T22:24:42.984Z,0.36
2022-12-01T22:30:14.627Z,0.39
2022-12-01T22:32:46.183Z,0.40
2022-12-01T22:46:59.465Z,0.46
2022-12-01T22:49:42.718Z,0.47
2022-12-01T22:52:24.737Z,0.45
2022-12-01T22:54:56.453Z,0.43
2022-12-01T22:57:47.423Z,0.43
2022-12-01T23:00:15.545Z,0.44
2022-12-01T23:02:42.701Z,0.52
2022-12-01T23:05:18.639Z,0.44
2022-12-01T23:07:46.322Z,0.42
2022-12-01T23:10:18.358Z,0.47
2022-12-01T23:12:46.588Z,0.46
2022-12-01T23:15:21.511Z,0.43
2022-12-01T23:17:48.595Z,0.36
2022-12-01T23:20:34.545Z,0.37
2022-12-01T23:28:35.718Z,0.29
2022-12-01T23:36:17.322Z,0.33
2022-12-01T23:38:45.233Z,0.39
2022-12-01T23:41:25.487Z,0.35
2022-12-01T23:46:42.642Z,0.35
2022-12-01T23:51:55.214Z,0.38
2022-12-01T23:54:24.688Z,0.36
2022-12-01T23:56:56.153Z,0.35
2022-12-01T23:59:23.308Z,0.44
